sensor_id;sensor_type;location;lat;lon;timestamp;pressure;altitude;pressure_sealevel;temperature;humidity
41684;BME280;27369;52.030;4.586;2023-06-14T00:01:14;77412.75;;;-144.41;100.00
41684;BME280;27369;52.030;4.586;2023-06-14T00:03:39;78432.94;;;-144.41;100.00
41684;BME280;27369;52.030;4.586;2023-06-14T00:06:05;79708.56;;;-144.41;100.00
41684;BME280;27369;52.030;4.586;2023-06-14T00:08:30;80729.34;;;-144.41;100.00
41684;BME280;27369;52.030;4.586;2023-06-14T00:10:56;81750.38;;;-144.41;100.00
41684;BME280;27369;52.030;4.586;2023-06-14T00:13:22;83282.44;;;-144.41;100.00
41684;BME280;27369;52.030;4.586;2023-06-14T00:15:48;84559.56;;;-144.41;100.00
41684;BME280;27369;52.030;4.586;2023-06-14T00:18:14;86348.28;;;-144.41;100.00
41684;BME280;27369;52.030;4.586;2023-06-14T00:20:40;87626.41;;;-144.41;100.00
41684;BME280;27369;52.030;4.586;2023-06-14T00:23:07;88649.19;;;-144.41;100.00
41684;BME280;27369;52.030;4.586;2023-06-14T00:25:32;89672.25;;;-144.41;100.00
41684;BME280;27369;52.030;4.586;2023-06-14T00:27:57;90951.41;;;-144.41;100.00
41684;BME280;27369;52.030;4.586;2023-06-14T00:30:24;91719.13;;;-144.41;100.00
41684;BME280;27369;52.030;4.586;2023-06-14T00:32:49;92742.97;;;-144.41;100.00
41684;BME280;27369;52.030;4.586;2023-06-14T00:35:16;93767.03;;;-144.41;100.00
41684;BME280;27369;52.030;4.586;2023-06-14T00:37:41;94535.28;;;-144.41;100.00
41684;BME280;27369;52.030;4.586;2023-06-14T00:40:07;95559.84;;;-144.41;100.00
41684;BME280;27369;52.030;4.586;2023-06-14T00:42:33;96584.63;;;-144.41;100.00
41684;BME280;27369;52.030;4.586;2023-06-14T00:44:59;97866.00;;;-144.41;100.00
41684;BME280;27369;52.030;4.586;2023-06-14T00:47:25;99147.78;;;-144.41;100.00
41684;BME280;27369;52.030;4.586;2023-06-14T00:49:53;100173.50;;;-144.41;100.00
41684;BME280;27369;52.030;4.586;2023-06-14T00:52:19;100942.94;;;-144.41;100.00
41684;BME280;27369;52.030;4.586;2023-06-14T00:54:44;101969.13;;;-144.41;100.00
41684;BME280;27369;52.030;4.586;2023-06-14T00:57:11;102482.31;;;-144.41;100.00
41684;BME280;27369;52.030;4.586;2023-06-14T00:59:48;102540.44;;;-144.41;100.00
41684;BME280;27369;52.030;4.586;2023-06-14T01:02:14;102492.31;;;-144.41;100.00
41684;BME280;27369;52.030;4.586;2023-06-14T01:04:47;102115.44;;;-144.41;100.00
41684;BME280;27369;52.030;4.586;2023-06-14T01:07:46;101556.22;;;-144.41;100.00
41684;BME280;27369;52.030;4.586;2023-06-14T01:15:54;100942.94;;;-144.41;100.00
41684;BME280;27369;52.030;4.586;2023-06-14T01:18:21;100429.97;;;-144.41;100.00
41684;BME280;27369;52.030;4.586;2023-06-14T01:20:49;99917.03;;;-144.41;100.00
41684;BME280;27369;52.030;4.586;2023-06-14T01:23:19;99660.59;;;-144.41;100.00
41684;BME280;27369;52.030;4.586;2023-06-14T01:25:46;99660.59;;;-144.41;100.00
41684;BME280;27369;52.030;4.586;2023-06-14T01:28:13;99404.19;;;-144.41;100.00
41684;BME280;27369;52.030;4.586;2023-06-14T01:30:43;99660.59;;;-144.41;100.00
41684;BME280;27369;52.030;4.586;2023-06-14T01:33:14;99917.03;;;-144.41;100.00
41684;BME280;27369;52.030;4.586;2023-06-14T01:35:43;100173.50;;;-144.41;100.00
41684;BME280;27369;52.030;4.586;2023-06-14T01:38:09;100429.97;;;-144.41;100.00
41684;BME280;27369;52.030;4.586;2023-06-14T01:40:34;100686.44;;;-144.41;100.00
41684;BME280;27369;52.030;4.586;2023-06-14T01:43:01;101456.00;;;-144.41;100.00
41684;BME280;27369;52.030;4.586;2023-06-14T01:45:28;101712.56;;;-144.41;100.00
41684;BME280;27369;52.030;4.586;2023-06-14T01:47:54;101969.13;;;-144.41;100.00
41684;BME280;27369;52.030;4.586;2023-06-14T01:50:20;102482.31;;;-144.41;100.00
41684;BME280;27369;52.030;4.586;2023-06-14T01:52:46;102738.91;;;-144.41;100.00
41684;BME280;27369;52.030;4.586;2023-06-14T01:55:11;102995.56;;;-144.41;100.00
41684;BME280;27369;52.030;4.586;2023-06-14T01:57:37;103508.84;;;-144.41;100.00
41684;BME280;27369;52.030;4.586;2023-06-14T02:00:04;103765.53;;;-144.41;100.00
41684;BME280;27369;52.030;4.586;2023-06-14T02:02:29;104022.22;;;-144.41;100.00
41684;BME280;27369;52.030;4.586;2023-06-14T02:04:55;104022.22;;;-144.41;100.00
41684;BME280;27369;52.030;4.586;2023-06-14T02:07:23;104022.22;;;-144.41;100.00
41684;BME280;27369;52.030;4.586;2023-06-14T02:09:48;104022.22;;;-144.41;100.00
41684;BME280;27369;52.030;4.586;2023-06-14T02:12:14;103765.53;;;-144.41;100.00
41684;BME280;27369;52.030;4.586;2023-06-14T02:14:39;103252.19;;;-144.41;100.00
41684;BME280;27369;52.030;4.586;2023-06-14T02:17:05;102995.56;;;-144.41;100.00
41684;BME280;27369;52.030;4.586;2023-06-14T02:19:31;102738.91;;;-144.41;100.00
41684;BME280;27369;52.030;4.586;2023-06-14T02:21:57;102995.56;;;-144.41;100.00
41684;BME280;27369;52.030;4.586;2023-06-14T02:24:22;102995.56;;;-144.41;100.00
41684;BME280;27369;52.030;4.586;2023-06-14T02:26:48;103252.19;;;-144.41;100.00
41684;BME280;27369;52.030;4.586;2023-06-14T02:29:14;104022.22;;;-144.41;100.00
41684;BME280;27369;52.030;4.586;2023-06-14T02:31:40;104278.94;;;-144.41;100.00
41684;BME280;27369;52.030;4.586;2023-06-14T02:34:06;104792.41;;;-144.41;100.00
41684;BME280;27369;52.030;4.586;2023-06-14T02:36:34;105049.19;;;-144.41;100.00
41684;BME280;27369;52.030;4.586;2023-06-14T02:38:59;105562.75;;;-144.41;100.00
41684;BME280;27369;52.030;4.586;2023-06-14T02:41:25;106076.38;;;-144.41;100.00
41684;BME280;27369;52.030;4.586;2023-06-14T02:43:51;106333.22;;;-144.41;100.00
41684;BME280;27369;52.030;4.586;2023-06-14T02:46:16;106333.22;;;-144.41;100.00
41684;BME280;27369;52.030;4.586;2023-06-14T02:48:42;106590.09;;;-144.41;100.00
41684;BME280;27369;52.030;4.586;2023-06-14T02:51:07;106533.91;;;-144.41;100.00
41684;BME280;27369;52.030;4.586;2023-06-14T02:53:35;106357.31;;;-144.41;100.00
41684;BME280;27369;52.030;4.586;2023-06-14T02:56:01;106353.28;;;-144.41;100.00
41684;BME280;27369;52.030;4.586;2023-06-14T02:58:29;106345.28;;;-144.41;100.00
41684;BME280;27369;52.030;4.586;2023-06-14T03:00:55;106483.72;;;-144.41;100.00
41684;BME280;27369;52.030;4.586;2023-06-14T03:03:20;106513.84;;;-144.41;100.00
41684;BME280;27369;52.030;4.586;2023-06-14T03:05:48;106545.94;;;-144.41;100.00
41684;BME280;27369;52.030;4.586;2023-06-14T03:08:17;106764.69;;;-144.41;100.00
41684;BME280;27369;52.030;4.586;2023-06-14T03:10:48;106822.88;;;-144.41;100.00
41684;BME280;27369;52.030;4.586;2023-06-14T03:13:14;106602.13;;;-144.41;100.00
41684;BME280;27369;52.030;4.586;2023-06-14T03:15:43;106256.97;;;-144.41;100.00
41684;BME280;27369;52.030;4.586;2023-06-14T03:18:10;106028.22;;;-144.41;100.00
41684;BME280;27369;52.030;4.586;2023-06-14T03:20:37;106096.44;;;-144.41;100.00
41684;BME280;27369;52.030;4.586;2023-06-14T03:23:03;105964.03;;;-144.41;100.00
41684;BME280;27369;52.030;4.586;2023-06-14T03:25:30;105536.66;;;-144.41;100.00
41684;BME280;27369;52.030;4.586;2023-06-14T03:27:56;105221.69;;;-144.41;100.00
41684;BME280;27369;52.030;4.586;2023-06-14T03:30:21;104451.44;;;-144.41;100.00
41684;BME280;27369;52.030;4.586;2023-06-14T03:32:47;103629.19;;;-144.41;100.00
41684;BME280;27369;52.030;4.586;2023-06-14T03:35:12;103246.19;;;-144.41;100.00
41684;BME280;27369;52.030;4.586;2023-06-14T03:37:45;103565.00;;;-144.41;100.00
41684;BME280;27369;52.030;4.586;2023-06-14T03:40:12;102957.44;;;-144.41;100.00
41684;BME280;27369;52.030;4.586;2023-06-14T03:42:38;102819.13;;;-144.41;100.00
41684;BME280;27369;52.030;4.586;2023-06-14T03:45:04;102099.41;;;-144.41;100.00
41684;BME280;27369;52.030;4.586;2023-06-14T03:47:30;102366.03;;;-144.41;100.00
41684;BME280;27369;52.030;4.586;2023-06-14T03:49:55;103803.63;;;-144.41;100.00
41684;BME280;27369;52.030;4.586;2023-06-14T03:52:21;104435.38;;;-144.41;100.00
41684;BME280;27369;52.030;4.586;2023-06-14T03:54:48;106126.56;;;-144.41;100.00
41684;BME280;27369;52.030;4.586;2023-06-14T03:57:14;107384.84;;;-144.41;100.00
41684;BME280;27369;52.030;4.586;2023-06-14T03:59:39;106846.97;;;-144.41;100.00
41684;BME280;27369;52.030;4.586;2023-06-14T04:02:13;105305.97;;;-144.41;100.00
41684;BME280;27369;52.030;4.586;2023-06-14T04:11:11;99660.59;;;-144.41;100.00
41684;BME280;27369;52.030;4.586;2023-06-14T04:13:36;98378.66;;;-144.41;100.00
41684;BME280;27369;52.030;4.586;2023-06-14T04:16:04;96328.41;;;-144.41;100.00
41684;BME280;27369;52.030;4.586;2023-06-14T04:18:29;93767.03;;;-144.41;100.00
41684;BME280;27369;52.030;4.586;2023-06-14T04:20:55;92231.00;;;-144.41;100.00
41684;BME280;27369;52.030;4.586;2023-06-14T04:23:21;90951.41;;;-144.41;100.00
41684;BME280;27369;52.030;4.586;2023-06-14T04:25:47;90439.69;;;-144.41;100.00
41684;BME280;27369;52.030;4.586;2023-06-14T04:28:14;83980.81;;;-144.41;100.00
41684;BME280;27369;52.030;4.586;2023-06-14T04:30:41;19694.63;;;-144.41;100.00
41684;BME280;27369;52.030;4.586;2023-06-14T04:33:06;7399.56;;;-144.41;100.00
41684;BME280;27369;52.030;4.586;2023-06-14T04:35:32;891.47;;;-144.41;100.00
41684;BME280;27369;52.030;4.586;2023-06-14T04:37:58;-17073.72;;;-144.41;100.00
41684;BME280;27369;52.030;4.586;2023-06-14T04:40:24;-17322.66;;;-144.41;100.00
41684;BME280;27369;52.030;4.586;2023-06-14T04:42:50;-18069.31;;;-144.41;100.00
41684;BME280;27369;52.030;4.586;2023-06-14T04:45:16;-18069.31;;;-144.41;100.00
41684;BME280;27369;52.030;4.586;2023-06-14T04:47:42;-17820.44;;;-144.41;100.00
41684;BME280;27369;52.030;4.586;2023-06-14T04:50:09;-17571.56;;;-144.41;100.00
41684;BME280;27369;52.030;4.586;2023-06-14T04:52:36;-17571.56;;;-144.41;100.00
41684;BME280;27369;52.030;4.586;2023-06-14T04:55:02;-17820.44;;;-144.41;100.00
41684;BME280;27369;52.030;4.586;2023-06-14T04:57:28;-17322.66;;;-144.41;100.00
41684;BME280;27369;52.030;4.586;2023-06-14T04:59:54;-17322.66;;;-144.41;100.00
41684;BME280;27369;52.030;4.586;2023-06-14T05:02:23;-17322.66;;;-144.41;100.00
41684;BME280;27369;52.030;4.586;2023-06-14T05:04:49;-17322.66;;;-144.41;100.00
41684;BME280;27369;52.030;4.586;2023-06-14T05:07:14;-17073.72;;;-144.41;100.00
41684;BME280;27369;52.030;4.586;2023-06-14T05:09:40;-17073.72;;;-144.41;100.00
41684;BME280;27369;52.030;4.586;2023-06-14T05:12:05;-16326.84;;;-144.41;100.00
41684;BME280;27369;52.030;4.586;2023-06-14T05:14:33;-15828.84;;;-144.41;100.00
41684;BME280;27369;52.030;4.586;2023-06-14T05:17:00;-16824.78;;;-144.41;100.00
41684;BME280;27369;52.030;4.586;2023-06-14T05:19:25;-16824.78;;;-144.41;100.00
41684;BME280;27369;52.030;4.586;2023-06-14T05:21:51;-16077.84;;;-144.41;100.00
41684;BME280;27369;52.030;4.586;2023-06-14T05:24:17;-15330.78;;;-144.41;100.00
41684;BME280;27369;52.030;4.586;2023-06-14T05:26:43;-14334.47;;;-144.41;100.00
41684;BME280;27369;52.030;4.586;2023-06-14T05:29:08;-12839.53;;;-144.41;100.00
41684;BME280;27369;52.030;4.586;2023-06-14T05:31:34;-11344.00;;;-144.41;100.00
41684;BME280;27369;52.030;4.586;2023-06-14T05:33:59;-10097.25;;;-144.41;100.00
41684;BME280;27369;52.030;4.586;2023-06-14T05:36:25;-9099.59;;;-144.41;100.00
41684;BME280;27369;52.030;4.586;2023-06-14T05:38:51;-8351.16;;;-144.41;100.00
41684;BME280;27369;52.030;4.586;2023-06-14T05:41:24;-6105.00;;;-144.41;100.00
41684;BME280;27369;52.030;4.586;2023-06-14T05:43:49;-4357.06;;;-144.41;100.00
41684;BME280;27369;52.030;4.586;2023-06-14T05:46:14;-1858.66;;;-144.41;100.00
41684;BME280;27369;52.030;4.586;2023-06-14T05:48:40;-108.81;;;-144.41;100.00
41684;BME280;27369;52.030;4.586;2023-06-14T05:51:05;2642.56;;;-144.41;100.00
41684;BME280;27369;52.030;4.586;2023-06-14T05:53:34;6898.53;;;-144.41;100.00
41684;BME280;27369;52.030;4.586;2023-06-14T05:55:59;11911.59;;;-144.41;100.00
41684;BME280;27369;52.030;4.586;2023-06-14T05:58:25;19896.88;;;-144.41;100.00
41684;BME280;27369;52.030;4.586;2023-06-14T06:00:50;24541.38;;;-144.41;100.00
41684;BME280;27369;52.030;4.586;2023-06-14T06:03:15;25815.47;;;-144.41;100.00
41684;BME280;27369;52.030;4.586;2023-06-14T06:05:41;25703.38;;;-144.41;100.00
41684;BME280;27369;52.030;4.586;2023-06-14T06:08:06;27127.34;;;-144.41;100.00
41684;BME280;27369;52.030;4.586;2023-06-14T06:10:32;28429.81;;;-144.41;100.00
41684;BME280;27369;52.030;4.586;2023-06-14T06:12:57;29417.81;;;-144.41;100.00
41684;BME280;27369;52.030;4.586;2023-06-14T06:15:22;31412.22;;;-144.41;100.00
41684;BME280;27369;52.030;4.586;2023-06-14T06:18:23;31776.56;;;-144.41;100.00
41684;BME280;27369;52.030;4.586;2023-06-14T06:21:17;33313.06;;;-144.41;100.00
41684;BME280;27369;52.030;4.586;2023-06-14T06:23:43;35411.97;;;-144.41;100.00
41684;BME280;27369;52.030;4.586;2023-06-14T06:26:08;36991.31;;;-144.41;100.00
41684;BME280;27369;52.030;4.586;2023-06-14T06:28:33;38257.63;;;-144.41;100.00
41684;BME280;27369;52.030;4.586;2023-06-14T06:30:59;38731.13;;;-144.41;100.00
41684;BME280;27369;52.030;4.586;2023-06-14T06:33:24;38995.50;;;-144.41;100.00
41684;BME280;27369;52.030;4.586;2023-06-14T06:35:50;39169.16;;;-144.41;100.00
41684;BME280;27369;52.030;4.586;2023-06-14T06:38:15;39546.03;;;-144.41;100.00
41684;BME280;27369;52.030;4.586;2023-06-14T06:40:41;39694.06;;;-144.41;100.00
41684;BME280;27369;52.030;4.586;2023-06-14T06:43:06;40124.28;;;-144.41;100.00
41684;BME280;27369;52.030;4.586;2023-06-14T06:45:31;40203.25;;;-144.41;100.00
41684;BME280;27369;52.030;4.586;2023-06-14T06:47:57;40337.47;;;-144.41;100.00
41684;BME280;27369;52.030;4.586;2023-06-14T06:50:22;40562.47;;;-144.41;100.00
41684;BME280;27369;52.030;4.586;2023-06-14T06:52:48;41000.72;;;-144.41;100.00
41684;BME280;27369;52.030;4.586;2023-06-14T06:55:14;40977.03;;;-144.41;100.00
41684;BME280;27369;52.030;4.586;2023-06-14T06:57:40;41389.63;;;-144.41;100.00
41684;BME280;27369;52.030;4.586;2023-06-14T07:00:06;41308.69;;;-144.41;100.00
41684;BME280;27369;52.030;4.586;2023-06-14T07:02:35;41440.97;;;-144.41;100.00
41684;BME280;27369;52.030;4.586;2023-06-14T07:05:01;41539.69;;;-144.41;100.00
41684;BME280;27369;52.030;4.586;2023-06-14T07:07:27;41596.94;;;-144.41;100.00
41684;BME280;27369;52.030;4.586;2023-06-14T07:09:52;41837.84;;;-144.41;100.00
41684;BME280;27369;52.030;4.586;2023-06-14T07:12:17;42207.09;;;-144.41;100.00
41684;BME280;27369;52.030;4.586;2023-06-14T07:14:43;42390.75;;;-144.41;100.00
41684;BME280;27369;52.030;4.586;2023-06-14T07:17:09;42580.34;;;-144.41;100.00
41684;BME280;27369;52.030;4.586;2023-06-14T07:19:34;42837.09;;;-144.41;100.00
41684;BME280;27369;52.030;4.586;2023-06-14T07:22:00;42815.38;;;-144.41;100.00
41684;BME280;27369;52.030;4.586;2023-06-14T07:24:26;42890.41;;;-144.41;100.00
41684;BME280;27369;52.030;4.586;2023-06-14T07:26:54;43014.84;;;-144.41;100.00
41684;BME280;27369;52.030;4.586;2023-06-14T07:29:20;43188.66;;;-144.41;100.00
41684;BME280;27369;52.030;4.586;2023-06-14T07:31:46;43324.97;;;-144.41;100.00
41684;BME280;27369;52.030;4.586;2023-06-14T07:34:12;43234.09;;;-144.41;100.00
41684;BME280;27369;52.030;4.586;2023-06-14T07:36:37;43204.47;;;-144.41;100.00
41684;BME280;27369;52.030;4.586;2023-06-14T07:39:03;43451.38;;;-144.41;100.00
41684;BME280;27369;52.030;4.586;2023-06-14T07:41:29;43518.53;;;-144.41;100.00
41684;BME280;27369;52.030;4.586;2023-06-14T07:43:54;43506.69;;;-144.41;100.00
41684;BME280;27369;52.030;4.586;2023-06-14T07:46:20;43556.06;;;-144.41;100.00
41684;BME280;27369;52.030;4.586;2023-06-14T07:48:45;43627.19;;;-144.41;100.00
41684;BME280;27369;52.030;4.586;2023-06-14T07:51:11;43548.19;;;-144.41;100.00
41684;BME280;27369;52.030;4.586;2023-06-14T07:53:36;43455.34;;;-144.41;100.00
41684;BME280;27369;52.030;4.586;2023-06-14T07:56:02;43453.34;;;-144.41;100.00
41684;BME280;27369;52.030;4.586;2023-06-14T07:58:27;43546.19;;;-144.41;100.00
41684;BME280;27369;52.030;4.586;2023-06-14T08:00:53;43520.53;;;-144.41;100.00
41684;BME280;27369;52.030;4.586;2023-06-14T08:03:18;43520.53;;;-144.41;100.00
41684;BME280;27369;52.030;4.586;2023-06-14T08:05:44;43403.97;;;-144.41;100.00
41684;BME280;27369;52.030;4.586;2023-06-14T08:08:10;43534.34;;;-144.41;100.00
41684;BME280;27369;52.030;4.586;2023-06-14T08:10:35;43447.44;;;-144.41;100.00
41684;BME280;27369;52.030;4.586;2023-06-14T08:13:01;43433.59;;;-144.41;100.00
41684;BME280;27369;52.030;4.586;2023-06-14T08:15:26;43488.91;;;-144.41;100.00
41684;BME280;27369;52.030;4.586;2023-06-14T08:17:52;43407.91;;;-144.41;100.00
41684;BME280;27369;52.030;4.586;2023-06-14T08:20:17;43346.69;;;-144.41;100.00
41684;BME280;27369;52.030;4.586;2023-06-14T08:22:43;43451.38;;;-144.41;100.00
41684;BME280;27369;52.030;4.586;2023-06-14T08:25:09;43579.78;;;-144.41;100.00
41684;BME280;27369;52.030;4.586;2023-06-14T08:27:35;43623.25;;;-144.41;100.00
41684;BME280;27369;52.030;4.586;2023-06-14T08:30:00;43528.41;;;-144.41;100.00
41684;BME280;27369;52.030;4.586;2023-06-14T08:32:27;43605.47;;;-144.41;100.00
41684;BME280;27369;52.030;4.586;2023-06-14T08:34:52;43603.50;;;-144.41;100.00
41684;BME280;27369;52.030;4.586;2023-06-14T08:37:18;43615.34;;;-144.41;100.00
41684;BME280;27369;52.030;4.586;2023-06-14T08:39:43;43617.31;;;-144.41;100.00
41684;BME280;27369;52.030;4.586;2023-06-14T08:42:09;43613.38;;;-144.41;100.00
41684;BME280;27369;52.030;4.586;2023-06-14T08:44:35;43694.34;;;-144.41;100.00
41684;BME280;27369;52.030;4.586;2023-06-14T08:47:01;43729.91;;;-144.41;100.00
41684;BME280;27369;52.030;4.586;2023-06-14T08:49:29;43680.53;;;-144.41;100.00
41684;BME280;27369;52.030;4.586;2023-06-14T08:52:00;43718.06;;;-144.41;100.00
41684;BME280;27369;52.030;4.586;2023-06-14T08:54:29;43856.34;;;-144.41;100.00
41684;BME280;27369;52.030;4.586;2023-06-14T08:57:01;43907.72;;;-144.41;100.00
41684;BME280;27369;52.030;4.586;2023-06-14T08:59:28;43874.13;;;-144.41;100.00
41684;BME280;27369;52.030;4.586;2023-06-14T09:01:54;44018.34;;;-144.41;100.00
41684;BME280;27369;52.030;4.586;2023-06-14T09:04:23;43949.19;;;-144.41;100.00
41684;BME280;27369;52.030;4.586;2023-06-14T09:06:50;43970.94;;;-144.41;100.00
41684;BME280;27369;52.030;4.586;2023-06-14T09:09:22;44006.50;;;-144.41;100.00
41684;BME280;27369;52.030;4.586;2023-06-14T09:11:51;44061.81;;;-144.41;100.00
41684;BME280;27369;52.030;4.586;2023-06-14T09:14:21;44132.94;;;-144.41;100.00
41684;BME280;27369;52.030;4.586;2023-06-14T09:16:46;44061.81;;;-144.41;100.00
41684;BME280;27369;52.030;4.586;2023-06-14T09:19:22;44119.09;;;-144.41;100.00
41684;BME280;27369;52.030;4.586;2023-06-14T09:21:49;44136.88;;;-144.41;100.00
41684;BME280;27369;52.030;4.586;2023-06-14T09:24:15;44077.63;;;-144.41;100.00
41684;BME280;27369;52.030;4.586;2023-06-14T09:26:40;44190.22;;;-144.41;100.00
41684;BME280;27369;52.030;4.586;2023-06-14T09:29:06;44192.22;;;-144.41;100.00
41684;BME280;27369;52.030;4.586;2023-06-14T09:31:31;44206.03;;;-144.41;100.00
41684;BME280;27369;52.030;4.586;2023-06-14T09:33:58;44215.91;;;-144.41;100.00
41684;BME280;27369;52.030;4.586;2023-06-14T09:36:25;44200.13;;;-144.41;100.00
41684;BME280;27369;52.030;4.586;2023-06-14T09:38:55;44231.72;;;-144.41;100.00
41684;BME280;27369;52.030;4.586;2023-06-14T09:41:38;44237.66;;;-144.41;100.00
41684;BME280;27369;52.030;4.586;2023-06-14T09:44:06;44253.47;;;-144.41;100.00
41684;BME280;27369;52.030;4.586;2023-06-14T09:46:33;44227.78;;;-144.41;100.00
41684;BME280;27369;52.030;4.586;2023-06-14T09:48:59;44294.94;;;-144.41;100.00
41684;BME280;27369;52.030;4.586;2023-06-14T09:51:26;44273.22;;;-144.41;100.00
41684;BME280;27369;52.030;4.586;2023-06-14T09:53:52;44261.38;;;-144.41;100.00
41684;BME280;27369;52.030;4.586;2023-06-14T09:56:28;44251.47;;;-144.41;100.00
41684;BME280;27369;52.030;4.586;2023-06-14T09:58:58;44332.50;;;-144.41;100.00
41684;BME280;27369;52.030;4.586;2023-06-14T10:01:25;44364.09;;;-144.41;100.00
41684;BME280;27369;52.030;4.586;2023-06-14T10:03:58;44348.28;;;-144.41;100.00
41684;BME280;27369;52.030;4.586;2023-06-14T10:06:26;44328.53;;;-144.41;100.00
41684;BME280;27369;52.030;4.586;2023-06-14T10:08:56;44407.56;;;-144.41;100.00
41684;BME280;27369;52.030;4.586;2023-06-14T10:11:23;44486.59;;;-144.41;100.00
41684;BME280;27369;52.030;4.586;2023-06-14T10:13:50;44526.13;;;-144.41;100.00
41684;BME280;27369;52.030;4.586;2023-06-14T10:16:24;44555.75;;;-144.41;100.00
41684;BME280;27369;52.030;4.586;2023-06-14T10:19:11;44603.19;;;-144.41;100.00
41684;BME280;27369;52.030;4.586;2023-06-14T10:24:45;44664.44;;;-144.41;100.00
41684;BME280;27369;52.030;4.586;2023-06-14T10:27:13;44660.50;;;-144.41;100.00
41684;BME280;27369;52.030;4.586;2023-06-14T10:30:02;44735.56;;;-144.41;100.00
41684;BME280;27369;52.030;4.586;2023-06-14T10:32:28;44796.84;;;-144.41;100.00
41684;BME280;27369;52.030;4.586;2023-06-14T10:34:56;44834.38;;;-144.41;100.00
41684;BME280;27369;52.030;4.586;2023-06-14T10:37:22;44899.59;;;-144.41;100.00
41684;BME280;27369;52.030;4.586;2023-06-14T10:39:47;44891.69;;;-144.41;100.00
41684;BME280;27369;52.030;4.586;2023-06-14T10:42:13;44893.66;;;-144.41;100.00
41684;BME280;27369;52.030;4.586;2023-06-14T10:47:25;44939.09;;;-144.41;100.00
41684;BME280;27369;52.030;4.586;2023-06-14T10:49:54;44968.75;;;-144.41;100.00
41684;BME280;27369;52.030;4.586;2023-06-14T10:52:27;44974.69;;;-144.41;100.00
41684;BME280;27369;52.030;4.586;2023-06-14T10:57:40;44992.47;;;-144.41;100.00
41684;BME280;27369;52.030;4.586;2023-06-14T11:00:07;45043.84;;;-144.41;100.00
41684;BME280;27369;52.030;4.586;2023-06-14T11:11:10;45006.31;;;-144.41;100.00
41684;BME280;27369;52.030;4.586;2023-06-14T11:13:39;45033.97;;;-144.41;100.00
41684;BME280;27369;52.030;4.586;2023-06-14T11:16:16;45039.91;;;-144.41;100.00
41684;BME280;27369;52.030;4.586;2023-06-14T11:18:41;45035.94;;;-144.41;100.00
41684;BME280;27369;52.030;4.586;2023-06-14T11:21:07;45081.41;;;-144.41;100.00
41684;BME280;27369;52.030;4.586;2023-06-14T11:23:34;45061.63;;;-144.41;100.00
41684;BME280;27369;52.030;4.586;2023-06-14T11:26:00;45073.50;;;-144.41;100.00
41684;BME280;27369;52.030;4.586;2023-06-14T11:28:36;45095.22;;;-144.41;100.00
41684;BME280;27369;52.030;4.586;2023-06-14T11:31:03;45075.47;;;-144.41;100.00
41684;BME280;27369;52.030;4.586;2023-06-14T11:33:28;45081.41;;;-144.41;100.00
41684;BME280;27369;52.030;4.586;2023-06-14T11:35:54;45128.81;;;-144.41;100.00
41684;BME280;27369;52.030;4.586;2023-06-14T11:38:19;45085.34;;;-144.41;100.00
41684;BME280;27369;52.030;4.586;2023-06-14T11:40:45;45081.41;;;-144.41;100.00
41684;BME280;27369;52.030;4.586;2023-06-14T11:43:10;45107.09;;;-144.41;100.00
41684;BME280;27369;52.030;4.586;2023-06-14T11:45:37;45085.34;;;-144.41;100.00
41684;BME280;27369;52.030;4.586;2023-06-14T11:48:03;45093.25;;;-144.41;100.00
41684;BME280;27369;52.030;4.586;2023-06-14T11:50:28;45103.13;;;-144.41;100.00
41684;BME280;27369;52.030;4.586;2023-06-14T11:52:59;45115.00;;;-144.41;100.00
41684;BME280;27369;52.030;4.586;2023-06-14T11:55:32;45079.41;;;-144.41;100.00
41684;BME280;27369;52.030;4.586;2023-06-14T11:57:57;45101.16;;;-144.41;100.00
41684;BME280;27369;52.030;4.586;2023-06-14T12:00:26;45073.50;;;-144.41;100.00
41684;BME280;27369;52.030;4.586;2023-06-14T12:02:53;45099.19;;;-144.41;100.00
41684;BME280;27369;52.030;4.586;2023-06-14T12:05:22;45105.09;;;-144.41;100.00
41684;BME280;27369;52.030;4.586;2023-06-14T12:07:49;45095.22;;;-144.41;100.00
41684;BME280;27369;52.030;4.586;2023-06-14T12:10:15;45115.00;;;-144.41;100.00
41684;BME280;27369;52.030;4.586;2023-06-14T12:12:41;45037.91;;;-144.41;100.00
41684;BME280;27369;52.030;4.586;2023-06-14T12:15:09;45057.69;;;-144.41;100.00
41684;BME280;27369;52.030;4.586;2023-06-14T12:17:37;45016.19;;;-144.41;100.00
41684;BME280;27369;52.030;4.586;2023-06-14T12:20:08;45043.84;;;-144.41;100.00
41684;BME280;27369;52.030;4.586;2023-06-14T12:22:46;45002.34;;;-144.41;100.00
41684;BME280;27369;52.030;4.586;2023-06-14T12:25:23;44966.78;;;-144.41;100.00
41684;BME280;27369;52.030;4.586;2023-06-14T12:27:48;44976.66;;;-144.41;100.00
41684;BME280;27369;52.030;4.586;2023-06-14T12:30:14;44992.47;;;-144.41;100.00
41684;BME280;27369;52.030;4.586;2023-06-14T12:32:39;44996.41;;;-144.41;100.00
41684;BME280;27369;52.030;4.586;2023-06-14T12:35:05;44996.41;;;-144.41;100.00
41684;BME280;27369;52.030;4.586;2023-06-14T12:37:31;44978.63;;;-144.41;100.00
41684;BME280;27369;52.030;4.586;2023-06-14T12:39:56;44990.50;;;-144.41;100.00
41684;BME280;27369;52.030;4.586;2023-06-14T12:42:21;44968.75;;;-144.41;100.00
41684;BME280;27369;52.030;4.586;2023-06-14T12:44:47;45032.00;;;-144.41;100.00
41684;BME280;27369;52.030;4.586;2023-06-14T12:47:12;45045.81;;;-144.41;100.00
41684;BME280;27369;52.030;4.586;2023-06-14T12:49:38;45014.19;;;-144.41;100.00
41684;BME280;27369;52.030;4.586;2023-06-14T12:52:05;45039.91;;;-144.41;100.00
41684;BME280;27369;52.030;4.586;2023-06-14T12:54:30;45035.94;;;-144.41;100.00
41684;BME280;27369;52.030;4.586;2023-06-14T12:56:56;45024.09;;;-144.41;100.00